Time;durP1;ratioP1;P1;durP2;ratioP2;P2;SDS_P1;SDS_P2;PMS_P1;PMS_P2;Temp;Humidity;BMP_temperature;BMP_pressure;BME280_temperature;BME280_humidity;BME280_pressure;Samples;Min_cycle;Max_cycle;Signal;HPM_P1;HPM_P2
2023/05/24 00:01:24;;;;;;;24.13;6.27;;;9.50;99.90;;;;;;5051023;28;20319;-96
2023/05/24 00:03:52;;;;;;;24.77;6.03;;;9.50;99.90;;;;;;5054878;28;20271;-96
2023/05/24 00:06:20;;;;;;;18.93;5.50;;;9.50;99.90;;;;;;5059335;28;20246;-95
2023/05/24 00:08:47;;;;;;;22.23;5.73;;;9.50;99.90;;;;;;5052813;28;20236;-95
2023/05/24 00:11:14;;;;;;;19.90;6.00;;;9.50;99.90;;;;;;5055055;28;20282;-96
2023/05/24 00:13:41;;;;;;;25.27;5.90;;;9.50;99.90;;;;;;5063627;28;20227;-96
2023/05/24 00:16:08;;;;;;;21.70;6.10;;;9.50;99.90;;;;;;5064178;28;20241;-96
2023/05/24 00:18:40;;;;;;;24.77;6.77;;;9.60;99.90;;;;;;5059659;28;20211;-96
2023/05/24 00:21:08;;;;;;;24.43;5.97;;;9.50;99.90;;;;;;5029502;28;20286;-96
2023/05/24 00:23:37;;;;;;;27.20;6.43;;;9.50;99.90;;;;;;5050803;28;20211;-96
2023/05/24 00:26:04;;;;;;;23.93;5.93;;;9.50;99.90;;;;;;5053179;28;20464;-96
2023/05/24 00:28:31;;;;;;;23.87;6.03;;;9.50;99.90;;;;;;5054099;28;20213;-96
2023/05/24 00:30:58;;;;;;;20.50;5.90;;;9.50;99.90;;;;;;5061028;28;20274;-95
2023/05/24 00:33:26;;;;;;;17.63;5.63;;;9.40;99.90;;;;;;5063208;28;20239;-96
2023/05/24 00:35:55;;;;;;;20.43;5.53;;;9.50;99.90;;;;;;5055592;28;20215;-96
2023/05/24 00:38:22;;;;;;;28.40;6.77;;;9.50;99.90;;;;;;5054975;28;20209;-96
2023/05/24 00:40:50;;;;;;;19.50;5.50;;;9.50;99.90;;;;;;5053797;28;20207;-96
2023/05/24 00:43:17;;;;;;;24.60;6.40;;;9.50;99.90;;;;;;5047093;28;20597;-96
2023/05/24 00:45:45;;;;;;;25.00;5.83;;;9.50;99.90;;;;;;5053413;28;20302;-95
2023/05/24 00:48:12;;;;;;;25.30;6.40;;;9.50;99.90;;;;;;5061593;28;20249;-96
2023/05/24 00:50:40;;;;;;;26.17;6.67;;;9.50;99.90;;;;;;5051418;28;20781;-95
2023/05/24 00:53:07;;;;;;;20.73;6.80;;;9.50;99.90;;;;;;5055847;28;20215;-96
2023/05/24 00:55:35;;;;;;;21.83;5.80;;;9.50;99.90;;;;;;5056277;28;20231;-96
2023/05/24 00:58:03;;;;;;;24.50;6.60;;;9.50;99.90;;;;;;5054407;28;20258;-96
2023/05/24 01:00:31;;;;;;;22.27;6.23;;;9.40;99.90;;;;;;5049752;28;20220;-96
2023/05/24 01:03:01;;;;;;;25.70;6.07;;;9.50;99.90;;;;;;5062325;28;20283;-96
2023/05/24 01:05:28;;;;;;;25.83;6.23;;;9.40;99.90;;;;;;5058474;28;20243;-96
2023/05/24 01:08:04;;;;;;;20.00;6.10;;;9.40;99.90;;;;;;5049800;28;20579;-95
2023/05/24 01:10:40;;;;;;;24.23;5.60;;;9.40;99.90;;;;;;5057349;28;20414;-94
2023/05/24 01:13:19;;;;;;;22.33;5.73;;;9.40;99.90;;;;;;5060100;28;20211;-95
2023/05/24 01:15:54;;;;;;;25.10;6.17;;;9.40;99.90;;;;;;5051025;28;21130;-95
2023/05/24 01:18:29;;;;;;;32.77;8.10;;;9.40;99.90;;;;;;5049834;28;20242;-96
2023/05/24 01:21:07;;;;;;;27.43;6.20;;;9.40;99.90;;;;;;5054829;28;20271;-96
2023/05/24 01:23:48;;;;;;;26.93;6.90;;;9.30;99.90;;;;;;5055764;28;20212;-95
2023/05/24 01:26:21;;;;;;;25.83;6.87;;;9.40;99.90;;;;;;5060491;28;20216;-96
2023/05/24 01:28:49;;;;;;;26.50;6.60;;;9.40;99.90;;;;;;5056615;28;20229;-95
2023/05/24 01:31:18;;;;;;;24.67;6.30;;;9.40;99.90;;;;;;5046933;28;20228;-95
2023/05/24 01:33:48;;;;;;;23.67;6.47;;;9.40;99.90;;;;;;5044023;28;20307;-94
2023/05/24 01:36:19;;;;;;;26.57;6.00;;;9.40;99.90;;;;;;5038722;28;20261;-95
2023/05/24 01:38:48;;;;;;;27.67;6.93;;;9.40;99.90;;;;;;5060890;28;20204;-96
2023/05/24 01:44:00;;;;;;;26.97;6.23;;;9.40;99.90;;;;;;5018257;28;20247;-76
2023/05/24 01:46:35;;;;;;;20.87;6.30;;;9.40;99.90;;;;;;5013979;28;20311;-76
2023/05/24 01:49:10;;;;;;;23.80;5.90;;;9.40;99.90;;;;;;4999613;28;20273;-76
2023/05/24 01:51:43;;;;;;;25.90;5.90;;;9.40;99.90;;;;;;5001181;28;20252;-75
2023/05/24 01:54:13;;;;;;;21.50;5.90;;;9.40;99.90;;;;;;4984764;28;20328;-77
2023/05/24 01:56:44;;;;;;;23.73;6.23;;;9.40;99.90;;;;;;5001502;28;20232;-76
2023/05/24 01:59:13;;;;;;;23.07;6.80;;;9.40;99.90;;;;;;4981319;28;20231;-77
2023/05/24 02:01:41;;;;;;;23.03;5.57;;;9.50;99.90;;;;;;5002959;28;20301;-76
2023/05/24 02:04:08;;;;;;;26.57;6.73;;;9.50;99.90;;;;;;4998988;28;20248;-79
2023/05/24 02:06:35;;;;;;;27.90;6.97;;;9.50;99.90;;;;;;5000714;28;20244;-77
2023/05/24 02:09:01;;;;;;;22.90;6.10;;;9.50;99.90;;;;;;4985068;28;20308;-76
2023/05/24 02:11:28;;;;;;;22.70;5.90;;;9.50;99.90;;;;;;5061763;22;20893;-79
2023/05/24 02:13:55;;;;;;;19.03;5.67;;;9.50;99.90;;;;;;5045263;28;20255;-79
2023/05/24 02:16:25;;;;;;;26.73;6.60;;;9.50;99.90;;;;;;5033292;28;20227;-79
2023/05/24 02:18:52;;;;;;;22.80;6.50;;;9.50;99.90;;;;;;5041683;28;20268;-80
2023/05/24 02:21:19;;;;;;;19.40;6.67;;;9.50;99.90;;;;;;5041442;28;20216;-79
2023/05/24 02:23:45;;;;;;;23.77;6.43;;;9.50;99.90;;;;;;5036427;28;20682;-79
2023/05/24 02:26:13;;;;;;;21.53;6.03;;;9.50;99.90;;;;;;5035528;28;20708;-79
2023/05/24 02:28:40;;;;;;;24.90;6.13;;;9.50;99.90;;;;;;5038268;28;20224;-79
2023/05/24 02:31:07;;;;;;;24.67;6.63;;;9.50;99.90;;;;;;5040562;28;20236;-79
2023/05/24 02:33:36;;;;;;;19.50;6.00;;;9.60;99.90;;;;;;5035729;28;20347;-79
2023/05/24 02:36:03;;;;;;;25.63;6.33;;;9.50;99.90;;;;;;5037983;28;20939;-79
2023/05/24 02:38:30;;;;;;;24.33;5.70;;;9.60;99.90;;;;;;5037020;28;20314;-78
2023/05/24 02:40:57;;;;;;;21.33;6.23;;;9.60;99.90;;;;;;5039866;28;20259;-78
2023/05/24 02:43:24;;;;;;;27.00;6.00;;;9.60;99.90;;;;;;5033267;28;20569;-79
2023/05/24 02:45:50;;;;;;;25.33;6.33;;;9.60;99.90;;;;;;5037079;28;20220;-79
2023/05/24 02:48:17;;;;;;;23.57;5.70;;;9.60;99.90;;;;;;5036931;28;20579;-80
2023/05/24 02:50:46;;;;;;;21.87;6.23;;;9.60;99.90;;;;;;5042170;28;20232;-79
2023/05/24 02:53:12;;;;;;;26.03;6.33;;;9.60;99.90;;;;;;5053204;28;20220;-79
2023/05/24 02:55:42;;;;;;;22.23;6.43;;;9.60;99.90;;;;;;5036994;28;20221;-80
2023/05/24 02:58:10;;;;;;;22.80;6.13;;;9.70;99.90;;;;;;5032479;28;20217;-78
2023/05/24 03:00:37;;;;;;;17.10;5.43;;;9.70;99.90;;;;;;5039804;28;20245;-79
2023/05/24 03:03:04;;;;;;;21.77;6.30;;;9.70;99.90;;;;;;5040857;28;20929;-80
2023/05/24 03:05:32;;;;;;;24.63;6.57;;;9.60;99.90;;;;;;5042928;28;20314;-80
2023/05/24 03:08:00;;;;;;;26.37;6.90;;;9.70;99.90;;;;;;5038339;28;20246;-79
2023/05/24 03:10:26;;;;;;;21.77;5.40;;;9.60;99.90;;;;;;5035101;28;20224;-79
2023/05/24 03:12:53;;;;;;;25.07;6.20;;;9.60;99.90;;;;;;5035596;28;20658;-80
2023/05/24 03:15:20;;;;;;;25.60;6.37;;;9.60;99.90;;;;;;5039150;28;20226;-80
2023/05/24 03:17:47;;;;;;;26.67;6.50;;;9.70;99.90;;;;;;5040158;28;20249;-81
2023/05/24 03:20:14;;;;;;;22.33;6.37;;;9.70;99.90;;;;;;5042725;28;20235;-80
2023/05/24 03:22:41;;;;;;;23.00;6.33;;;9.70;99.90;;;;;;5040279;28;20259;-81
2023/05/24 03:25:10;;;;;;;21.50;5.97;;;9.70;99.90;;;;;;5031265;28;20818;-81
2023/05/24 03:27:38;;;;;;;26.50;6.47;;;9.70;99.90;;;;;;5056750;28;20220;-81
2023/05/24 03:30:05;;;;;;;23.60;6.73;;;9.70;99.90;;;;;;5035581;28;20220;-81
2023/05/24 03:32:38;;;;;;;23.90;6.13;;;9.70;99.90;;;;;;5039373;28;20318;-81
2023/05/24 03:35:05;;;;;;;22.13;6.13;;;9.70;99.90;;;;;;5036500;28;20224;-80
2023/05/24 03:37:33;;;;;;;22.23;6.33;;;9.70;99.90;;;;;;5035074;28;20224;-80
2023/05/24 03:39:59;;;;;;;26.87;6.07;;;9.70;99.90;;;;;;5035686;28;20931;-80
2023/05/24 03:42:52;;;;;;;24.53;6.43;;;9.70;99.90;;;;;;5037571;28;20297;-80
2023/05/24 03:45:22;;;;;;;26.43;6.00;;;9.70;99.90;;;;;;5034010;28;20642;-80
2023/05/24 03:47:49;;;;;;;21.63;6.47;;;9.70;99.90;;;;;;5038838;28;20638;-79
2023/05/24 03:50:16;;;;;;;25.03;5.87;;;9.70;99.90;;;;;;5036359;28;20308;-80
2023/05/24 03:52:43;;;;;;;22.17;6.07;;;9.70;99.90;;;;;;5036867;28;20228;-80
2023/05/24 03:55:10;;;;;;;25.80;6.27;;;9.70;99.90;;;;;;5038738;28;20315;-80
2023/05/24 03:57:37;;;;;;;16.77;5.40;;;9.70;99.90;;;;;;5038371;28;20252;-81
2023/05/24 04:00:07;;;;;;;23.83;7.03;;;9.70;99.90;;;;;;5034099;28;20746;-81
2023/05/24 04:02:40;;;;;;;21.27;6.47;;;9.80;99.90;;;;;;5034618;28;20230;-81
2023/05/24 04:05:09;;;;;;;24.23;6.27;;;9.80;99.90;;;;;;5035801;28;20217;-80
2023/05/24 04:07:37;;;;;;;25.97;6.20;;;9.80;99.90;;;;;;5037255;28;20271;-81
2023/05/24 04:10:04;;;;;;;22.80;6.27;;;9.80;99.90;;;;;;5033040;28;20227;-80
2023/05/24 04:12:31;;;;;;;20.73;6.70;;;9.80;99.90;;;;;;5032353;28;20221;-80
2023/05/24 04:15:00;;;;;;;24.63;6.87;;;9.80;99.90;;;;;;5034775;28;20744;-80
2023/05/24 04:17:33;;;;;;;27.90;6.57;;;9.80;99.90;;;;;;5035861;28;20228;-79
2023/05/24 04:20:00;;;;;;;19.77;6.40;;;9.80;99.90;;;;;;5047717;28;20229;-79
2023/05/24 04:22:28;;;;;;;29.10;7.07;;;9.90;99.90;;;;;;5033319;28;20248;-79
2023/05/24 04:24:55;;;;;;;27.33;6.70;;;9.90;99.90;;;;;;5037047;28;20242;-79
2023/05/24 04:27:24;;;;;;;22.77;6.50;;;9.90;99.90;;;;;;5035792;28;20621;-78
2023/05/24 04:29:51;;;;;;;32.47;6.73;;;9.90;99.90;;;;;;5034148;28;20229;-80
2023/05/24 04:32:18;;;;;;;25.97;6.97;;;10.00;99.90;;;;;;5048228;28;20574;-80
2023/05/24 04:34:46;;;;;;;33.57;8.27;;;10.00;99.90;;;;;;5036458;28;20303;-82
2023/05/24 04:37:16;;;;;;;28.73;7.20;;;10.00;99.90;;;;;;5029043;28;20336;-77
2023/05/24 04:39:44;;;;;;;25.70;7.10;;;10.10;99.90;;;;;;5052559;28;20231;-78
2023/05/24 04:42:11;;;;;;;27.37;7.17;;;10.20;99.90;;;;;;5030175;28;20768;-78
2023/05/24 04:44:40;;;;;;;22.23;6.47;;;10.20;99.90;;;;;;5044529;28;20230;-76
2023/05/24 04:47:07;;;;;;;23.10;6.27;;;10.20;99.90;;;;;;5037734;28;20305;-77
2023/05/24 04:49:34;;;;;;;23.20;5.77;;;10.20;99.90;;;;;;5038319;28;20228;-77
2023/05/24 04:52:02;;;;;;;20.30;6.67;;;10.20;99.90;;;;;;5034755;28;20230;-77
2023/05/24 04:54:29;;;;;;;23.50;7.27;;;10.20;99.90;;;;;;5033544;28;20225;-77
2023/05/24 04:56:56;;;;;;;24.07;7.23;;;10.20;99.90;;;;;;5030665;28;20224;-76
2023/05/24 04:59:23;;;;;;;24.07;6.97;;;10.30;99.90;;;;;;5031971;28;20251;-76
2023/05/24 05:01:50;;;;;;;19.20;5.80;;;10.30;99.90;;;;;;5036293;28;20236;-76
2023/05/24 05:04:17;;;;;;;25.17;5.73;;;10.30;99.90;;;;;;5035211;28;20220;-77
2023/05/24 05:06:43;;;;;;;21.07;6.70;;;10.30;99.90;;;;;;5034018;28;20294;-77
2023/05/24 05:09:13;;;;;;;23.67;7.47;;;10.30;99.90;;;;;;5032897;28;20335;-77
2023/05/24 05:11:40;;;;;;;21.27;6.33;;;10.30;99.90;;;;;;5033861;28;20235;-76
2023/05/24 05:14:08;;;;;;;23.70;6.97;;;10.30;99.90;;;;;;5035074;28;20329;-77
2023/05/24 05:16:35;;;;;;;23.00;7.20;;;10.40;99.90;;;;;;5034471;28;20220;-78
2023/05/24 05:19:03;;;;;;;22.93;6.90;;;10.40;99.90;;;;;;5041073;28;20769;-77
2023/05/24 05:21:31;;;;;;;21.33;6.10;;;10.40;99.90;;;;;;5037130;28;21075;-77
2023/05/24 05:23:58;;;;;;;24.53;7.13;;;10.40;99.90;;;;;;5039728;28;20313;-77
2023/05/24 05:26:26;;;;;;;28.33;7.83;;;10.50;99.90;;;;;;5031216;28;20231;-80
2023/05/24 05:28:53;;;;;;;20.20;6.60;;;10.50;99.90;;;;;;5029550;28;20584;-79
2023/05/24 05:31:20;;;;;;;28.47;7.30;;;10.50;99.90;;;;;;5032149;28;20313;-79
2023/05/24 05:33:46;;;;;;;25.10;6.40;;;10.50;99.90;;;;;;5034935;28;20253;-82
2023/05/24 05:36:13;;;;;;;28.80;7.30;;;10.50;99.90;;;;;;5029843;28;20226;-79
2023/05/24 05:38:41;;;;;;;24.50;6.90;;;10.50;99.90;;;;;;5026813;28;20740;-78
2023/05/24 05:41:08;;;;;;;26.43;6.87;;;10.60;99.90;;;;;;5030087;28;20319;-79
2023/05/24 05:43:38;;;;;;;21.73;7.37;;;10.60;99.90;;;;;;5037012;28;20254;-79
2023/05/24 05:46:05;;;;;;;25.40;6.90;;;10.60;99.90;;;;;;5033567;28;20719;-77
2023/05/24 05:48:32;;;;;;;28.53;7.30;;;10.60;99.90;;;;;;5032371;28;20297;-79
2023/05/24 05:50:59;;;;;;;31.23;7.47;;;10.60;99.90;;;;;;5032512;28;20230;-79
2023/05/24 05:53:26;;;;;;;33.33;8.60;;;10.60;99.90;;;;;;5030776;28;20761;-79
2023/05/24 05:55:52;;;;;;;29.07;7.07;;;10.70;99.90;;;;;;5029978;28;20908;-80
2023/05/24 05:58:19;;;;;;;31.53;7.60;;;10.70;99.90;;;;;;5029369;28;20212;-79
2023/05/24 06:00:47;;;;;;;29.77;7.13;;;10.80;99.90;;;;;;5046306;28;20517;-78
2023/05/24 06:03:14;;;;;;;27.50;7.27;;;10.90;99.90;;;;;;5025611;28;20730;-79
2023/05/24 06:05:41;;;;;;;35.73;7.77;;;10.90;99.90;;;;;;5036213;28;20953;-79
2023/05/24 06:08:08;;;;;;;26.53;7.90;;;11.00;99.90;;;;;;5038117;28;20254;-79
2023/05/24 06:10:35;;;;;;;27.13;7.50;;;11.10;99.90;;;;;;5040312;28;20730;-79
2023/05/24 06:13:02;;;;;;;24.47;7.43;;;11.10;99.90;;;;;;5035235;28;20232;-79
2023/05/24 06:15:29;;;;;;;21.40;6.60;;;11.10;99.90;;;;;;5038126;28;20227;-79
2023/05/24 06:17:57;;;;;;;26.90;7.03;;;11.20;99.90;;;;;;5039725;28;20706;-79
2023/05/24 06:20:24;;;;;;;21.77;6.83;;;11.30;99.90;;;;;;5041595;28;20243;-79
2023/05/24 06:22:51;;;;;;;18.23;6.63;;;11.30;99.90;;;;;;5041235;28;20457;-79
2023/05/24 06:25:19;;;;;;;22.97;8.10;;;11.40;99.90;;;;;;5042177;28;20217;-79
2023/05/24 06:27:46;;;;;;;26.83;7.30;;;11.40;99.90;;;;;;5037644;28;20226;-79
2023/05/24 06:30:13;;;;;;;28.27;6.80;;;11.50;99.90;;;;;;5037930;28;20756;-79
2023/05/24 06:32:40;;;;;;;24.03;6.80;;;11.50;99.90;;;;;;5041314;28;20877;-79
2023/05/24 06:35:09;;;;;;;25.53;6.97;;;11.50;99.90;;;;;;5037751;28;20229;-79
2023/05/24 06:37:37;;;;;;;32.10;8.03;;;11.50;99.90;;;;;;5045927;28;20287;-79
2023/05/24 06:40:05;;;;;;;31.00;8.37;;;11.50;99.90;;;;;;5038607;28;20227;-79
2023/05/24 06:42:32;;;;;;;32.60;8.17;;;11.50;99.90;;;;;;5040111;28;20321;-79
2023/05/24 06:44:59;;;;;;;28.17;7.23;;;11.40;99.90;;;;;;5040096;28;20216;-79
2023/05/24 06:47:26;;;;;;;30.37;7.70;;;11.40;99.90;;;;;;5039961;28;20314;-79
2023/05/24 06:49:53;;;;;;;28.27;7.60;;;11.40;99.90;;;;;;5037850;28;20918;-79
2023/05/24 06:52:21;;;;;;;28.43;8.20;;;11.40;99.90;;;;;;5034467;28;20240;-79
2023/05/24 06:54:48;;;;;;;27.60;7.73;;;11.30;99.90;;;;;;5040657;28;20629;-79
2023/05/24 06:57:15;;;;;;;25.87;7.00;;;11.30;99.90;;;;;;5037682;28;20711;-79
2023/05/24 06:59:42;;;;;;;30.47;8.47;;;11.30;99.90;;;;;;5043879;28;20235;-80
2023/05/24 07:02:08;;;;;;;21.67;6.30;;;11.30;99.90;;;;;;5036844;28;20232;-79
2023/05/24 07:04:35;;;;;;;21.80;6.00;;;11.40;99.90;;;;;;5042595;28;20862;-79
2023/05/24 07:07:02;;;;;;;22.63;6.50;;;11.50;99.90;;;;;;5038500;28;20768;-79
2023/05/24 07:09:30;;;;;;;23.20;7.83;;;11.60;99.90;;;;;;5038926;28;20225;-79
2023/05/24 07:11:57;;;;;;;24.27;6.20;;;11.70;99.90;;;;;;5033057;28;20231;-79
2023/05/24 07:14:24;;;;;;;23.00;6.40;;;11.90;99.90;;;;;;5038407;28;20222;-79
2023/05/24 07:16:53;;;;;;;19.93;6.03;;;12.10;99.90;;;;;;5038819;28;20229;-79
2023/05/24 07:19:20;;;;;;;17.77;5.37;;;12.30;99.90;;;;;;5037474;28;20246;-79
2023/05/24 07:21:47;;;;;;;26.57;6.10;;;12.50;99.90;;;;;;5039152;28;20296;-79
2023/05/24 07:24:14;;;;;;;20.30;6.03;;;12.70;99.90;;;;;;5035274;28;20230;-79
2023/05/24 07:26:42;;;;;;;25.83;6.83;;;13.00;99.90;;;;;;5033089;28;20224;-80
2023/05/24 07:29:08;;;;;;;21.50;6.63;;;13.30;99.90;;;;;;5034264;28;20613;-79
2023/05/24 07:31:35;;;;;;;18.30;5.77;;;13.60;99.90;;;;;;5037996;28;20230;-79
2023/05/24 07:34:02;;;;;;;20.97;6.17;;;13.90;99.90;;;;;;5031502;28;20621;-79
2023/05/24 07:36:31;;;;;;;18.10;6.17;;;14.00;99.90;;;;;;5034315;28;20225;-79
2023/05/24 07:38:58;;;;;;;26.27;6.67;;;14.10;99.90;;;;;;5032612;28;20274;-79
2023/05/24 07:41:26;;;;;;;17.90;5.57;;;14.20;99.90;;;;;;5033472;28;20239;-79
2023/05/24 07:43:55;;;;;;;23.10;6.13;;;14.10;99.90;;;;;;5038112;28;20233;-79
2023/05/24 07:46:21;;;;;;;22.33;6.07;;;14.10;99.90;;;;;;5036574;28;20222;-79
2023/05/24 07:48:48;;;;;;;19.10;6.37;;;14.10;99.90;;;;;;5036359;28;20229;-79
2023/05/24 07:51:15;;;;;;;20.93;6.17;;;14.00;99.90;;;;;;5032463;28;20778;-79
2023/05/24 07:53:41;;;;;;;19.67;6.60;;;14.00;99.90;;;;;;5036957;28;20591;-79
2023/05/24 07:56:08;;;;;;;21.37;6.77;;;13.90;99.90;;;;;;5039266;28;20229;-79
2023/05/24 07:58:35;;;;;;;22.40;6.40;;;13.80;99.90;;;;;;5031834;28;20311;-79
2023/05/24 08:01:03;;;;;;;22.03;6.23;;;13.70;99.90;;;;;;5035480;28;20225;-79
2023/05/24 08:03:30;;;;;;;21.23;5.87;;;13.60;99.90;;;;;;5037977;28;20616;-79
2023/05/24 08:05:56;;;;;;;18.83;6.43;;;13.50;99.90;;;;;;5043580;28;20233;-79
2023/05/24 08:08:23;;;;;;;20.90;6.57;;;13.40;99.90;;;;;;5036784;28;20230;-79
2023/05/24 08:10:50;;;;;;;24.07;6.80;;;13.40;99.90;;;;;;5046418;28;20225;-79
2023/05/24 08:13:16;;;;;;;17.80;6.23;;;13.30;99.90;;;;;;5032421;28;20228;-79
2023/05/24 08:15:43;;;;;;;24.13;6.50;;;13.30;99.90;;;;;;5039921;28;20221;-79
2023/05/24 08:18:11;;;;;;;24.13;7.17;;;13.30;99.90;;;;;;5038554;28;20242;-79
2023/05/24 08:20:39;;;;;;;25.60;7.27;;;13.40;99.90;;;;;;5040739;28;20591;-79
2023/05/24 08:23:06;;;;;;;22.07;6.40;;;13.40;99.90;;;;;;5040439;28;20240;-79
2023/05/24 08:25:33;;;;;;;22.73;7.00;;;13.30;99.90;;;;;;5035531;28;20230;-79
2023/05/24 08:27:59;;;;;;;22.17;7.27;;;13.30;99.90;;;;;;5034025;28;20228;-79
2023/05/24 08:30:26;;;;;;;27.90;7.23;;;13.30;99.90;;;;;;5034521;28;20255;-79
2023/05/24 08:32:53;;;;;;;17.50;6.70;;;13.30;99.90;;;;;;5038753;28;20226;-79
2023/05/24 08:35:21;;;;;;;26.77;7.23;;;13.30;99.90;;;;;;5043528;28;20235;-79
2023/05/24 08:37:47;;;;;;;21.50;6.33;;;13.20;99.90;;;;;;5039446;28;20243;-79
2023/05/24 08:40:14;;;;;;;24.57;7.43;;;13.20;99.90;;;;;;5038991;28;20234;-78
2023/05/24 08:42:41;;;;;;;22.33;6.23;;;13.20;99.90;;;;;;5036328;28;20240;-79
2023/05/24 08:45:11;;;;;;;26.17;7.40;;;13.30;99.90;;;;;;5041732;28;20226;-79
2023/05/24 08:47:38;;;;;;;22.50;6.63;;;13.30;99.90;;;;;;5036736;28;20252;-80
2023/05/24 08:50:07;;;;;;;21.87;6.20;;;13.30;99.90;;;;;;5041381;28;20746;-79
2023/05/24 08:52:36;;;;;;;20.10;6.43;;;13.30;99.90;;;;;;5036287;28;20239;-79
2023/05/24 08:55:04;;;;;;;19.87;6.63;;;13.30;99.90;;;;;;5043030;28;20309;-78
2023/05/24 08:57:33;;;;;;;19.37;6.40;;;13.30;99.90;;;;;;5039246;28;20227;-79
2023/05/24 09:00:00;;;;;;;20.27;7.10;;;13.30;99.90;;;;;;5035872;28;20318;-79
2023/05/24 09:02:27;;;;;;;15.37;5.53;;;13.40;99.90;;;;;;5038408;28;20221;-79
2023/05/24 09:04:55;;;;;;;17.77;5.40;;;13.50;99.90;;;;;;5040173;28;20227;-79
2023/05/24 09:07:23;;;;;;;16.83;5.67;;;13.60;99.90;;;;;;5037312;28;20222;-79
2023/05/24 09:09:57;;;;;;;17.23;5.63;;;13.70;99.90;;;;;;5034997;28;20226;-79
2023/05/24 09:12:26;;;;;;;23.27;5.50;;;13.90;99.90;;;;;;5035465;28;20230;-79
2023/05/24 09:14:53;;;;;;;16.73;5.37;;;14.00;99.90;;;;;;5045241;28;20234;-79
2023/05/24 09:17:21;;;;;;;15.47;5.23;;;14.20;99.90;;;;;;5044421;28;20218;-79
2023/05/24 09:19:50;;;;;;;19.53;5.33;;;14.30;99.90;;;;;;5042687;28;20245;-79
2023/05/24 09:22:19;;;;;;;20.43;5.70;;;14.60;99.90;;;;;;5038054;28;20772;-81
2023/05/24 09:24:48;;;;;;;16.57;6.13;;;14.80;99.90;;;;;;5037312;28;20230;-80
2023/05/24 09:27:16;;;;;;;12.83;4.67;;;15.00;99.90;;;;;;5037361;28;20235;-79
2023/05/24 09:29:45;;;;;;;16.30;4.90;;;15.10;99.90;;;;;;5043403;28;20228;-79
2023/05/24 09:32:12;;;;;;;18.43;5.43;;;15.30;99.90;;;;;;5037853;28;20767;-79
2023/05/24 09:34:40;;;;;;;18.43;5.50;;;15.40;99.90;;;;;;5036796;28;20224;-79
2023/05/24 09:37:12;;;;;;;18.93;5.73;;;15.50;99.90;;;;;;5036655;28;20308;-79
2023/05/24 09:39:40;;;;;;;18.27;5.10;;;15.60;99.90;;;;;;5044984;28;20318;-79
2023/05/24 09:42:07;;;;;;;14.13;5.27;;;15.60;99.90;;;;;;5043917;28;20306;-79
2023/05/24 09:44:35;;;;;;;14.60;5.13;;;15.70;99.90;;;;;;5042015;28;20232;-79
2023/05/24 09:47:04;;;;;;;14.67;4.40;;;15.80;99.90;;;;;;5034675;28;20255;-79
2023/05/24 09:49:31;;;;;;;14.27;4.70;;;15.90;99.90;;;;;;5037861;28;20290;-79
2023/05/24 09:51:58;;;;;;;14.20;4.63;;;16.00;99.90;;;;;;5036349;28;20247;-79
2023/05/24 09:54:25;;;;;;;17.97;4.67;;;16.00;99.90;;;;;;5039977;28;20250;-79
2023/05/24 09:56:52;;;;;;;13.10;4.60;;;16.00;99.90;;;;;;5032656;28;20631;-79
2023/05/24 09:59:19;;;;;;;12.40;4.47;;;16.00;99.90;;;;;;5039623;28;20751;-79
2023/05/24 10:01:52;;;;;;;16.73;4.53;;;16.00;99.90;;;;;;5047779;28;20216;-79
2023/05/24 10:04:19;;;;;;;18.10;5.67;;;15.90;99.90;;;;;;5045230;28;20236;-79
2023/05/24 10:06:47;;;;;;;20.70;5.30;;;15.90;99.90;;;;;;5046539;28;20230;-79
2023/05/24 10:09:14;;;;;;;16.03;4.67;;;15.90;99.90;;;;;;5042835;28;20217;-79
2023/05/24 10:11:41;;;;;;;12.33;4.60;;;15.80;99.90;;;;;;5045652;28;20315;-79
2023/05/24 10:14:09;;;;;;;17.40;5.23;;;15.80;99.90;;;;;;5045121;28;20231;-79
2023/05/24 10:16:36;;;;;;;13.60;4.53;;;15.80;99.90;;;;;;5046433;28;20262;-79
2023/05/24 10:19:05;;;;;;;12.77;4.80;;;15.80;99.90;;;;;;5046343;28;20224;-79
2023/05/24 10:21:36;;;;;;;13.80;4.70;;;15.80;99.90;;;;;;5040581;28;20698;-79
2023/05/24 10:24:05;;;;;;;13.67;4.70;;;15.90;99.90;;;;;;5043361;28;20228;-79
2023/05/24 10:26:32;;;;;;;10.83;4.33;;;15.90;99.90;;;;;;5044998;28;20230;-79
2023/05/24 10:29:04;;;;;;;13.33;4.13;;;16.10;99.90;;;;;;5046060;28;20712;-80
2023/05/24 10:31:33;;;;;;;14.73;4.07;;;16.20;99.90;;;;;;5040404;28;20235;-79
2023/05/24 10:34:02;;;;;;;14.33;5.07;;;16.30;99.90;;;;;;5044708;28;20247;-79
2023/05/24 10:36:31;;;;;;;11.10;4.60;;;16.30;99.90;;;;;;5037728;28;20229;-79
2023/05/24 10:38:58;;;;;;;11.93;4.30;;;16.30;99.70;;;;;;5046109;28;20227;-79
2023/05/24 10:41:26;;;;;;;13.10;4.37;;;16.40;99.80;;;;;;5042815;28;20226;-79
2023/05/24 10:43:55;;;;;;;13.33;4.00;;;16.40;99.70;;;;;;5042985;28;20268;-79
2023/05/24 10:46:22;;;;;;;16.33;4.67;;;16.30;99.60;;;;;;5047499;28;20235;-79
2023/05/24 10:49:00;;;;;;;20.57;5.10;;;16.30;99.60;;;;;;5043290;28;20216;-79
2023/05/24 10:51:34;;;;;;;10.07;3.60;;;16.20;99.60;;;;;;5041994;28;20234;-79
2023/05/24 10:54:25;;;;;;;10.63;3.87;;;16.20;99.70;;;;;;5039800;28;20226;-79
2023/05/24 10:56:52;;;;;;;12.97;4.20;;;16.30;99.80;;;;;;5038263;28;20227;-79
2023/05/24 10:59:24;;;;;;;13.33;4.73;;;16.40;99.60;;;;;;5039110;28;20215;-79
2023/05/24 11:01:56;;;;;;;14.57;4.10;;;16.30;99.70;;;;;;5042175;28;20230;-79
2023/05/24 11:04:22;;;;;;;14.23;4.87;;;16.40;99.90;;;;;;5040114;28;20279;-79
2023/05/24 11:06:56;;;;;;;10.17;4.43;;;16.50;99.40;;;;;;5043674;28;20248;-79
2023/05/24 11:09:25;;;;;;;12.70;4.10;;;16.70;98.80;;;;;;5044050;28;20223;-79
2023/05/24 11:11:55;;;;;;;13.97;4.50;;;16.90;98.50;;;;;;5044812;28;20220;-80
2023/05/24 11:14:24;;;;;;;14.83;4.50;;;17.00;98.30;;;;;;5055948;28;20311;-79
2023/05/24 11:16:51;;;;;;;11.53;4.00;;;17.10;97.60;;;;;;5038141;28;20597;-79
2023/05/24 11:19:19;;;;;;;11.23;4.23;;;17.10;98.00;;;;;;5044737;28;20849;-79
2023/05/24 11:21:47;;;;;;;13.37;4.60;;;17.10;97.80;;;;;;5040750;28;20216;-79
2023/05/24 11:24:16;;;;;;;15.47;4.73;;;17.00;98.20;;;;;;5043425;28;20227;-78
2023/05/24 11:26:44;;;;;;;12.30;4.67;;;17.00;98.40;;;;;;5042381;28;20228;-79
2023/05/24 11:29:16;;;;;;;12.87;4.63;;;17.00;98.50;;;;;;5042989;28;20249;-79
2023/05/24 11:31:47;;;;;;;11.53;4.33;;;17.10;98.10;;;;;;5042026;28;20305;-79
2023/05/24 11:34:14;;;;;;;13.47;4.47;;;17.10;98.40;;;;;;5042794;28;20247;-79
2023/05/24 11:36:42;;;;;;;12.23;4.20;;;17.20;98.40;;;;;;5042396;28;20227;-79
2023/05/24 11:39:09;;;;;;;11.63;4.40;;;17.30;98.60;;;;;;5042070;28;20234;-79
2023/05/24 11:41:38;;;;;;;13.73;3.90;;;17.40;98.00;;;;;;5044619;28;20243;-79
2023/05/24 11:44:06;;;;;;;13.18;4.35;;;17.60;97.20;;;;;;5044317;28;20227;-79
2023/05/24 11:46:32;;;;;;;14.25;4.22;;;17.80;97.50;;;;;;5045725;28;20227;-79
2023/05/24 11:49:00;;;;;;;11.00;4.37;;;18.00;97.20;;;;;;5041728;28;20825;-80
2023/05/24 11:51:28;;;;;;;11.15;4.50;;;18.30;95.70;;;;;;5038693;28;20402;-80
2023/05/24 11:53:56;;;;;;;10.70;3.70;;;18.70;96.60;;;;;;5040853;28;20229;-79
2023/05/24 11:56:22;;;;;;;12.45;4.32;;;19.10;96.30;;;;;;5039905;28;20224;-79
2023/05/24 11:58:55;;;;;;;9.52;3.83;;;19.40;95.90;;;;;;5041586;28;20247;-79
2023/05/24 12:01:24;;;;;;;10.95;3.60;;;19.70;95.00;;;;;;5042419;28;20611;-80
2023/05/24 12:03:51;;;;;;;11.38;4.00;;;20.00;95.10;;;;;;5043811;28;20228;-79
2023/05/24 12:06:18;;;;;;;14.20;4.93;;;20.20;93.90;;;;;;5043335;28;20251;-79
2023/05/24 12:08:45;;;;;;;10.50;3.92;;;20.30;92.80;;;;;;5043750;28;20591;-79
2023/05/24 12:11:13;;;;;;;10.18;3.80;;;20.40;92.90;;;;;;5040447;28;20220;-79
2023/05/24 12:13:40;;;;;;;11.98;4.70;;;20.30;93.40;;;;;;5040659;28;20213;-79
2023/05/24 12:16:08;;;;;;;8.10;4.30;;;20.20;92.70;;;;;;5041151;28;20266;-79
2023/05/24 12:18:34;;;;;;;11.48;4.13;;;20.00;91.40;;;;;;5042660;28;20231;-80
2023/05/24 12:21:01;;;;;;;11.07;4.47;;;19.80;91.90;;;;;;5040997;28;20230;-79
2023/05/24 12:23:30;;;;;;;9.80;3.93;;;19.50;91.90;;;;;;5041563;28;20216;-80
2023/05/24 12:26:01;;;;;;;12.93;4.45;;;19.20;92.70;;;;;;5040080;28;20712;-79
2023/05/24 12:28:27;;;;;;;10.37;4.03;;;19.00;92.10;;;;;;5040734;28;20290;-80
2023/05/24 12:30:54;;;;;;;12.13;4.47;;;18.80;92.80;;;;;;5040077;28;20255;-79
2023/05/24 12:33:24;;;;;;;10.57;4.07;;;18.70;92.40;;;;;;5038472;28;20216;-79
2023/05/24 12:35:52;;;;;;;12.70;4.40;;;18.60;93.00;;;;;;5042661;28;20295;-80
2023/05/24 12:38:24;;;;;;;10.10;4.07;;;18.50;93.70;;;;;;5038305;28;20224;-79
2023/05/24 12:40:50;;;;;;;11.80;4.15;;;18.60;94.10;;;;;;5032247;28;20223;-79
2023/05/24 12:43:19;;;;;;;11.27;3.90;;;18.70;94.00;;;;;;5044205;28;20270;-80
2023/05/24 12:45:46;;;;;;;12.85;3.90;;;18.80;93.60;;;;;;5042397;28;20231;-79
2023/05/24 12:48:12;;;;;;;13.00;3.75;;;19.00;93.60;;;;;;5040957;28;20224;-80